YLRE

Details ICAO YLRE (LRE)
Name Longreach
Region Australia
Timezone Australia/Brisbane (UTC+10.0)
Plans Departing 191
Arriving 211
Stats Elevation 626 ft / 191 m (AMSL)
Location -23.432000° 144.278000°
Runways 1
Magnetic Variation 7.433° E
Sunrise 2020-05-31 20:58:39 UTC / 2020-06-01 06:58:39 Local
Sunset 2020-06-01 07:45:41 UTC / 2020-06-01 17:45:41 Local
Advertisement - Login to hide

Runways

ID Width Length Bearing (true/mag) Surface Threshold Overrun Markings Lighting
04 98 ft / 30 m 6,339 ft / 1,932 m 46.50° / 39.07° ASPHALT 0 ft / 0 m 0 ft / 0 m PREC-APP EDGE THRESHOLD
22 98 ft / 30 m 6,339 ft / 1,932 m 226.50° / 219.06° ASPHALT 0 ft / 0 m 0 ft / 0 m PREC-APP EDGE THRESHOLD

Map

Weather


0- 5 10 15 20 25 30 35+ Temperature / °C

Clouds and Precipitation
Forecast for 2020-05-31 18:00 UTC. Updated 42 minutes ago

Ground ~20,000 ft ~40,000 ft Winds

METAR

YLRE 311600Z AUTO 11004KT 9999 // SCT100 16/07 Q1017

TAF

Not found
Warning: Do not use this data for real-world aviation or navigation. No guarantee of current accuracy is given.